Terminal Aerodrome Forecast
Issued by NWS

Home | Current Version | Previous Version | Text Only | Print | Product List | Glossary On
Versions: 1 2 3 4 5 6 7 8 9 10 11 12 13
000
FTPA31 PHFO 290547
TAFHTO
TAF
PHTO 290547Z 2906/3006 24005KT P6SM VCSH SCT025 BKN035
     FM292000 02011KT P6SM SCT025 BKN045
     FM300500 24005KT P6SM SCT025 BKN035=

USA.gov is the U.S. government's official web portal to all federal, state and local government web resources and services.